sensor_id;sensor_type;location;lat;lon;timestamp;pressure;altitude;pressure_sealevel;temperature;humidity
70589;BME280;58152;49.202;18.744;2022-08-21T00:00:14;96883.94;;;20.32;78.09
70589;BME280;58152;49.202;18.744;2022-08-21T00:02:50;96884.34;;;20.27;78.09
70589;BME280;58152;49.202;18.744;2022-08-21T00:05:17;96883.50;;;20.27;78.05
70589;BME280;58152;49.202;18.744;2022-08-21T00:07:42;96881.00;;;20.25;78.13
70589;BME280;58152;49.202;18.744;2022-08-21T00:10:09;96873.69;;;20.27;78.25
70589;BME280;58152;49.202;18.744;2022-08-21T00:12:35;96886.59;;;20.32;78.29
70589;BME280;58152;49.202;18.744;2022-08-21T00:15:01;96876.09;;;20.30;78.38
70589;BME280;58152;49.202;18.744;2022-08-21T00:17:27;96870.03;;;20.28;78.36
70589;BME280;58152;49.202;18.744;2022-08-21T00:19:52;96857.56;;;20.29;78.42
70589;BME280;58152;49.202;18.744;2022-08-21T00:22:18;96851.41;;;20.28;78.32
70589;BME280;58152;49.202;18.744;2022-08-21T00:24:43;96849.44;;;20.30;78.43
70589;BME280;58152;49.202;18.744;2022-08-21T00:27:09;96849.44;;;20.30;78.52
70589;BME280;58152;49.202;18.744;2022-08-21T00:29:34;96846.78;;;20.30;78.59
70589;BME280;58152;49.202;18.744;2022-08-21T00:32:00;96831.22;;;20.26;78.45
70589;BME280;58152;49.202;18.744;2022-08-21T00:34:25;96831.06;;;20.27;78.27
70589;BME280;58152;49.202;18.744;2022-08-21T00:36:51;96830.25;;;20.27;78.38
70589;BME280;58152;49.202;18.744;2022-08-21T00:39:17;96831.91;;;20.28;78.35
70589;BME280;58152;49.202;18.744;2022-08-21T00:41:42;96838.22;;;20.27;78.66
70589;BME280;58152;49.202;18.744;2022-08-21T00:44:11;96832.19;;;20.25;78.79
70589;BME280;58152;49.202;18.744;2022-08-21T00:46:37;96835.72;;;20.25;78.81
70589;BME280;58152;49.202;18.744;2022-08-21T00:49:05;96837.41;;;20.26;78.91
70589;BME280;58152;49.202;18.744;2022-08-21T00:51:53;96833.06;;;20.25;78.84
70589;BME280;58152;49.202;18.744;2022-08-21T00:54:22;96842.00;;;20.24;78.81
70589;BME280;58152;49.202;18.744;2022-08-21T00:56:53;96826.19;;;20.23;78.85
70589;BME280;58152;49.202;18.744;2022-08-21T00:59:21;96825.19;;;20.24;79.03
70589;BME280;58152;49.202;18.744;2022-08-21T01:01:47;96829.69;;;20.23;78.91
70589;BME280;58152;49.202;18.744;2022-08-21T01:04:14;96827.00;;;20.23;78.76
70589;BME280;58152;49.202;18.744;2022-08-21T01:06:42;96822.25;;;20.17;79.15
70589;BME280;58152;49.202;18.744;2022-08-21T01:09:07;96815.38;;;20.15;79.04
70589;BME280;58152;49.202;18.744;2022-08-21T01:11:34;96815.38;;;20.15;78.95
70589;BME280;58152;49.202;18.744;2022-08-21T01:14:00;96837.94;;;20.20;79.30
70589;BME280;58152;49.202;18.744;2022-08-21T01:16:26;96824.09;;;20.17;79.09
70589;BME280;58152;49.202;18.744;2022-08-21T01:18:52;96828.59;;;20.16;79.07
70589;BME280;58152;49.202;18.744;2022-08-21T01:21:25;96825.78;;;20.18;79.03
70589;BME280;58152;49.202;18.744;2022-08-21T01:23:52;96831.09;;;20.18;79.07
70589;BME280;58152;49.202;18.744;2022-08-21T01:26:22;96824.09;;;20.17;79.18
70589;BME280;58152;49.202;18.744;2022-08-21T01:28:57;96816.22;;;20.15;79.24
70589;BME280;58152;49.202;18.744;2022-08-21T01:31:25;96814.97;;;20.19;79.26
70589;BME280;58152;49.202;18.744;2022-08-21T01:33:52;96801.22;;;20.14;79.33
70589;BME280;58152;49.202;18.744;2022-08-21T01:36:18;96805.31;;;20.18;79.23
70589;BME280;58152;49.202;18.744;2022-08-21T01:38:43;96799.28;;;20.16;79.36
70589;BME280;58152;49.202;18.744;2022-08-21T01:41:09;96801.66;;;20.19;79.48
70589;BME280;58152;49.202;18.744;2022-08-21T01:43:35;96794.50;;;20.20;79.70
70589;BME280;58152;49.202;18.744;2022-08-21T01:46:02;96790.44;;;20.16;79.41
70589;BME280;58152;49.202;18.744;2022-08-21T01:48:28;96788.75;;;20.15;79.71
70589;BME280;58152;49.202;18.744;2022-08-21T01:50:53;96787.91;;;20.14;79.80
70589;BME280;58152;49.202;18.744;2022-08-21T01:53:19;96793.25;;;20.14;79.92
70589;BME280;58152;49.202;18.744;2022-08-21T01:55:45;96785.41;;;20.13;79.74
70589;BME280;58152;49.202;18.744;2022-08-21T01:58:10;96788.06;;;20.13;79.86
70589;BME280;58152;49.202;18.744;2022-08-21T02:00:36;96780.34;;;20.10;79.74
70589;BME280;58152;49.202;18.744;2022-08-21T02:03:02;96786.41;;;20.12;79.70
70589;BME280;58152;49.202;18.744;2022-08-21T02:05:28;96784.84;;;20.09;79.88
70589;BME280;58152;49.202;18.744;2022-08-21T02:07:54;96782.47;;;20.06;79.74
70589;BME280;58152;49.202;18.744;2022-08-21T02:10:27;96777.13;;;20.06;79.89
70589;BME280;58152;49.202;18.744;2022-08-21T02:12:54;96778.13;;;20.05;79.69
70589;BME280;58152;49.202;18.744;2022-08-21T02:15:20;96784.84;;;20.09;79.85
70589;BME280;58152;49.202;18.744;2022-08-21T02:17:49;96777.97;;;20.06;79.85
70589;BME280;58152;49.202;18.744;2022-08-21T02:20:22;96781.06;;;20.12;79.96
70589;BME280;58152;49.202;18.744;2022-08-21T02:22:48;96774.47;;;20.06;79.75
70589;BME280;58152;49.202;18.744;2022-08-21T02:25:16;96779.38;;;20.11;79.97
70589;BME280;58152;49.202;18.744;2022-08-21T02:27:43;96773.63;;;20.05;79.73
70589;BME280;58152;49.202;18.744;2022-08-21T02:30:12;96775.03;;;20.10;79.92
70589;BME280;58152;49.202;18.744;2022-08-21T02:32:38;96766.47;;;20.06;79.68
70589;BME280;58152;49.202;18.744;2022-08-21T02:35:04;96766.22;;;20.09;80.05
70589;BME280;58152;49.202;18.744;2022-08-21T02:37:30;96750.94;;;20.01;79.78
70589;BME280;58152;49.202;18.744;2022-08-21T02:39:56;96749.09;;;20.02;79.82
70589;BME280;58152;49.202;18.744;2022-08-21T02:42:21;96749.81;;;20.04;79.80
70589;BME280;58152;49.202;18.744;2022-08-21T02:44:47;96755.31;;;20.02;80.20
70589;BME280;58152;49.202;18.744;2022-08-21T02:47:13;96746.44;;;20.02;80.05
70589;BME280;58152;49.202;18.744;2022-08-21T02:49:39;96749.97;;;20.02;80.26
70589;BME280;58152;49.202;18.744;2022-08-21T02:52:05;96758.50;;;20.06;80.20
70589;BME280;58152;49.202;18.744;2022-08-21T02:54:31;96754.16;;;20.05;80.04
70589;BME280;58152;49.202;18.744;2022-08-21T02:56:57;96754.44;;;20.02;80.46
70589;BME280;58152;49.202;18.744;2022-08-21T02:59:22;96755.44;;;20.01;80.29
70589;BME280;58152;49.202;18.744;2022-08-21T03:01:48;96765.81;;;20.04;80.29
70589;BME280;58152;49.202;18.744;2022-08-21T03:04:13;96761.75;;;20.00;80.28
70589;BME280;58152;49.202;18.744;2022-08-21T03:06:39;96773.78;;;20.04;80.46
70589;BME280;58152;49.202;18.744;2022-08-21T03:09:05;96764.41;;;20.00;80.33
70589;BME280;58152;49.202;18.744;2022-08-21T03:11:30;96757.09;;;20.02;80.90
70589;BME280;58152;49.202;18.744;2022-08-21T03:13:56;96759.06;;;20.00;80.74
70589;BME280;58152;49.202;18.744;2022-08-21T03:16:21;96769.44;;;20.03;80.50
70589;BME280;58152;49.202;18.744;2022-08-21T03:18:47;96759.34;;;19.97;80.43
70589;BME280;58152;49.202;18.744;2022-08-21T03:21:12;96769.44;;;20.03;80.35
70589;BME280;58152;49.202;18.744;2022-08-21T03:23:41;96767.22;;;19.98;80.44
70589;BME280;58152;49.202;18.744;2022-08-21T03:26:07;96773.94;;;20.02;80.58
70589;BME280;58152;49.202;18.744;2022-08-21T03:28:35;96762.56;;;20.00;80.61
70589;BME280;58152;49.202;18.744;2022-08-21T03:31:01;96763.56;;;19.99;80.52
70589;BME280;58152;49.202;18.744;2022-08-21T03:33:30;96769.56;;;20.01;80.62
70589;BME280;58152;49.202;18.744;2022-08-21T03:36:02;96768.75;;;20.01;80.45
70589;BME280;58152;49.202;18.744;2022-08-21T03:38:29;96768.06;;;19.99;80.55
70589;BME280;58152;49.202;18.744;2022-08-21T03:40:56;96756.00;;;19.95;80.43
70589;BME280;58152;49.202;18.744;2022-08-21T03:46:27;96745.50;;;19.93;80.51
70589;BME280;58152;49.202;18.744;2022-08-21T03:48:53;96762.84;;;19.97;80.65
70589;BME280;58152;49.202;18.744;2022-08-21T03:51:19;96758.94;;;20.01;80.60
70589;BME280;58152;49.202;18.744;2022-08-21T03:53:44;96745.34;;;19.95;80.75
70589;BME280;58152;49.202;18.744;2022-08-21T03:56:10;96745.34;;;19.95;80.73
70589;BME280;58152;49.202;18.744;2022-08-21T03:58:36;96739.31;;;19.93;80.79
70589;BME280;58152;49.202;18.744;2022-08-21T04:01:04;96741.97;;;19.93;80.95
70589;BME280;58152;49.202;18.744;2022-08-21T04:03:31;96760.06;;;19.99;80.90
70589;BME280;58152;49.202;18.744;2022-08-21T04:05:57;96749.97;;;19.93;80.98
70589;BME280;58152;49.202;18.744;2022-08-21T04:08:23;96769.88;;;19.98;80.70
70589;BME280;58152;49.202;18.744;2022-08-21T04:10:51;96765.09;;;19.92;80.46
70589;BME280;58152;49.202;18.744;2022-08-21T04:13:18;96764.25;;;19.92;80.68
70589;BME280;58152;49.202;18.744;2022-08-21T04:15:43;96766.94;;;19.92;80.71
70589;BME280;58152;49.202;18.744;2022-08-21T04:18:09;96776.47;;;19.94;80.84
70589;BME280;58152;49.202;18.744;2022-08-21T04:20:35;96788.09;;;19.93;80.80
70589;BME280;58152;49.202;18.744;2022-08-21T04:23:01;96784.03;;;19.89;80.93
70589;BME280;58152;49.202;18.744;2022-08-21T04:25:28;96784.56;;;19.93;80.79
70589;BME280;58152;49.202;18.744;2022-08-21T04:27:53;96774.22;;;19.90;80.67
70589;BME280;58152;49.202;18.744;2022-08-21T04:30:19;96772.25;;;19.92;80.72
70589;BME280;58152;49.202;18.744;2022-08-21T04:32:49;96774.34;;;19.88;80.78
70589;BME280;58152;49.202;18.744;2022-08-21T04:35:18;96780.22;;;19.92;80.75
70589;BME280;58152;49.202;18.744;2022-08-21T04:37:44;96786.53;;;19.91;80.74
70589;BME280;58152;49.202;18.744;2022-08-21T04:40:13;96790.88;;;19.92;81.04
70589;BME280;58152;49.202;18.744;2022-08-21T04:43:03;96790.19;;;19.90;81.01
70589;BME280;58152;49.202;18.744;2022-08-21T04:45:31;96792.13;;;19.88;81.05
70589;BME280;58152;49.202;18.744;2022-08-21T04:47:59;96783.47;;;19.86;81.08
70589;BME280;58152;49.202;18.744;2022-08-21T04:50:38;96795.78;;;19.87;81.13
70589;BME280;58152;49.202;18.744;2022-08-21T04:53:12;96795.53;;;19.90;81.12
70589;BME280;58152;49.202;18.744;2022-08-21T04:55:39;96798.31;;;19.88;81.23
70589;BME280;58152;49.202;18.744;2022-08-21T04:58:09;96794.28;;;19.84;81.17
70589;BME280;58152;49.202;18.744;2022-08-21T05:00:36;96807.16;;;19.89;81.14
70589;BME280;58152;49.202;18.744;2022-08-21T05:03:03;96811.63;;;19.88;81.35
70589;BME280;58152;49.202;18.744;2022-08-21T05:05:30;96816.66;;;19.91;81.16
70589;BME280;58152;49.202;18.744;2022-08-21T05:08:09;96820.31;;;19.90;81.52
70589;BME280;58152;49.202;18.744;2022-08-21T05:10:41;96813.16;;;19.91;81.51
70589;BME280;58152;49.202;18.744;2022-08-21T05:13:15;96811.50;;;19.90;81.54
70589;BME280;58152;49.202;18.744;2022-08-21T05:15:41;96815.69;;;19.92;81.44
70589;BME280;58152;49.202;18.744;2022-08-21T05:18:08;96816.81;;;19.90;81.46
70589;BME280;58152;49.202;18.744;2022-08-21T05:20:34;96816.81;;;19.90;81.45
70589;BME280;58152;49.202;18.744;2022-08-21T05:23:00;96825.38;;;19.93;81.29
70589;BME280;58152;49.202;18.744;2022-08-21T05:25:26;96821.16;;;19.91;81.27
70589;BME280;58152;49.202;18.744;2022-08-21T05:27:52;96824.81;;;19.90;81.51
70589;BME280;58152;49.202;18.744;2022-08-21T05:30:19;96830.53;;;19.95;81.40
70589;BME280;58152;49.202;18.744;2022-08-21T05:32:46;96827.47;;;19.90;81.53
70589;BME280;58152;49.202;18.744;2022-08-21T05:35:12;96825.38;;;19.93;81.37
70589;BME280;58152;49.202;18.744;2022-08-21T05:37:39;96829.00;;;19.92;81.63
70589;BME280;58152;49.202;18.744;2022-08-21T05:40:05;96845.38;;;19.97;81.55
70589;BME280;58152;49.202;18.744;2022-08-21T05:42:32;96835.31;;;19.91;81.53
70589;BME280;58152;49.202;18.744;2022-08-21T05:44:58;96842.72;;;19.97;81.54
70589;BME280;58152;49.202;18.744;2022-08-21T05:47:23;96840.47;;;19.93;81.47
70589;BME280;58152;49.202;18.744;2022-08-21T05:49:49;96853.94;;;20.01;81.59
70589;BME280;58152;49.202;18.744;2022-08-21T05:59:10;96852.41;;;19.98;81.64
70589;BME280;58152;49.202;18.744;2022-08-21T08:48:55;96864.41;;;20.61;81.01
70589;BME280;58152;49.202;18.744;2022-08-21T09:51:59;96849.31;;;20.98;79.53
70589;BME280;58152;49.202;18.744;2022-08-21T18:45:18;97000.84;;;18.61;70.29
70589;BME280;58152;49.202;18.744;2022-08-21T20:49:42;96970.66;;;17.98;70.83
70589;BME280;58152;49.202;18.744;2022-08-21T20:52:38;96986.22;;;18.02;70.95
70589;BME280;58152;49.202;18.744;2022-08-21T22:08:41;96958.69;;;18.03;71.98
70589;BME280;58152;49.202;18.744;2022-08-21T22:14:44;96949.56;;;17.96;72.02
70589;BME280;58152;49.202;18.744;2022-08-21T22:20:13;96945.19;;;17.95;72.16
70589;BME280;58152;49.202;18.744;2022-08-21T22:22:49;96946.03;;;17.96;72.29
70589;BME280;58152;49.202;18.744;2022-08-21T22:25:39;96934.94;;;17.91;72.15
70589;BME280;58152;49.202;18.744;2022-08-21T22:31:35;96930.88;;;17.87;72.22
70589;BME280;58152;49.202;18.744;2022-08-21T22:34:14;96934.13;;;17.90;72.28
70589;BME280;58152;49.202;18.744;2022-08-21T22:37:05;96933.13;;;17.91;72.33
